Time;durP1;ratioP1;P1;durP2;ratioP2;P2;SDS_P1;SDS_P2;PMS_P1;PMS_P2;Temp;Humidity;BMP_temperature;BMP_pressure;BME280_temperature;BME280_humidity;BME280_pressure;Samples;Min_cycle;Max_cycle;Signal;HPM_P1;HPM_P2
2022/07/18 00:00:59;;;;;;;6.13;2.42;;;;;;;15.43;67.15;98118.59;5154310;27;20030;-81
2022/07/18 00:03:24;;;;;;;5.88;2.78;;;;;;;15.41;68.33;98114.31;5133715;27;20075;-82
2022/07/18 00:05:50;;;;;;;9.65;3.22;;;;;;;15.56;70.18;98119.47;5136291;27;20557;-81
2022/07/18 00:08:15;;;;;;;7.75;3.50;;;;;;;15.56;70.45;98126.69;5158333;27;20034;-81
2022/07/18 00:10:41;;;;;;;6.82;4.25;;;;;;;15.49;71.22;98131.66;5138539;27;20562;-81
2022/07/18 00:13:07;;;;;;;7.28;3.80;;;;;;;15.47;71.92;98124.66;5140497;27;20022;-81
2022/07/18 00:15:32;;;;;;;8.55;4.38;;;;;;;15.39;72.54;98127.88;5140444;27;20079;-81
2022/07/18 00:17:58;;;;;;;10.13;3.90;;;;;;;15.32;73.25;98118.50;5140386;27;20083;-80
2022/07/18 00:20:24;;;;;;;10.43;4.20;;;;;;;15.28;73.63;98127.81;5137014;27;20075;-82
2022/07/18 00:22:49;;;;;;;10.13;4.25;;;;;;;15.28;73.53;98125.09;5123307;27;20030;-81
2022/07/18 00:25:15;;;;;;;9.05;4.30;;;;;;;15.34;73.58;98121.97;5157934;27;20022;-80
2022/07/18 00:27:41;;;;;;;9.52;3.75;;;;;;;15.21;74.30;98115.72;5157953;27;20117;-80
2022/07/18 00:30:08;;;;;;;10.82;4.22;;;;;;;15.34;74.07;98124.66;5157552;27;20471;-80
2022/07/18 00:32:33;;;;;;;6.43;3.72;;;;;;;15.23;73.47;98118.31;5140289;27;20057;-81
2022/07/18 00:34:59;;;;;;;4.57;3.00;;;;;;;15.23;72.46;98121.84;5140129;27;20034;-81
2022/07/18 00:37:25;;;;;;;7.25;2.90;;;;;;;15.12;72.00;98122.63;5136928;27;20019;-82
2022/07/18 00:39:50;;;;;;;7.10;2.95;;;;;;;15.13;71.77;98131.59;5136650;27;20022;-82
2022/07/18 00:42:16;;;;;;;7.35;3.20;;;;;;;15.09;71.30;98127.38;5136788;27;20401;-82
2022/07/18 00:44:42;;;;;;;5.97;3.00;;;;;;;14.95;71.50;98119.41;5136871;27;20033;-82
2022/07/18 00:47:07;;;;;;;9.60;2.95;;;;;;;14.89;70.82;98120.69;5157463;27;20022;-83
2022/07/18 00:49:33;;;;;;;6.05;2.83;;;;;;;14.83;71.90;98126.50;5136560;27;20027;-83
2022/07/18 00:51:59;;;;;;;4.97;2.85;;;;;;;14.97;70.92;98123.72;5139168;27;20042;-82
2022/07/18 00:54:25;;;;;;;5.72;2.75;;;;;;;14.95;70.96;98116.72;5157577;27;20102;-83
2022/07/18 00:56:51;;;;;;;5.45;2.90;;;;;;;14.99;70.37;98120.91;5140026;27;20041;-82
2022/07/18 00:59:17;;;;;;;8.32;3.08;;;;;;;14.88;70.14;98124.38;5139883;27;20022;-82
2022/07/18 01:01:43;;;;;;;4.22;2.35;;;;;;;14.73;71.13;98129.97;5157264;27;20034;-83
2022/07/18 01:04:22;;;;;;;4.72;2.40;;;;;;;14.75;71.58;98119.94;5140051;27;20022;-80
2022/07/18 01:06:49;;;;;;;3.97;2.50;;;;;;;14.84;71.07;98119.28;5157607;27;20029;-82
2022/07/18 01:09:16;;;;;;;5.22;2.20;;;;;;;14.81;70.58;98127.59;5157310;27;20029;-82
2022/07/18 01:11:43;;;;;;;3.10;1.60;;;;;;;14.89;68.30;98119.84;5136411;27;20033;-82
2022/07/18 01:14:09;;;;;;;2.97;1.88;;;;;;;14.97;68.08;98114.78;5139878;27;20042;-83
2022/07/18 01:16:35;;;;;;;3.80;1.98;;;;;;;14.98;68.82;98124.59;5140572;27;20034;-82
2022/07/18 01:19:01;;;;;;;5.45;2.33;;;;;;;14.98;69.53;98128.13;5157090;27;20056;-82
2022/07/18 01:21:26;;;;;;;3.88;2.20;;;;;;;15.00;70.06;98131.59;5156900;27;20054;-81
2022/07/18 01:23:52;;;;;;;4.45;2.80;;;;;;;15.15;72.22;98129.63;5157092;27;20038;-84
2022/07/18 01:26:18;;;;;;;7.30;3.25;;;;;;;14.97;72.87;98122.84;5139543;27;20022;-81
2022/07/18 01:28:44;;;;;;;4.25;2.97;;;;;;;14.90;73.64;98132.31;5139426;27;20038;-81
2022/07/18 01:31:10;;;;;;;6.93;3.38;;;;;;;14.79;74.88;98125.00;5139285;27;20584;-82
2022/07/18 01:33:36;;;;;;;6.97;3.28;;;;;;;14.67;74.75;98130.38;5139249;27;20030;-83
2022/07/18 01:36:04;;;;;;;7.13;3.85;;;;;;;14.54;75.70;98127.66;5138974;27;20503;-80
2022/07/18 01:38:30;;;;;;;6.20;3.38;;;;;;;14.46;75.66;98128.19;5156848;27;20015;-80
2022/07/18 01:40:58;;;;;;;6.47;3.50;;;;;;;14.47;75.28;98119.16;5175048;27;20106;-82
2022/07/18 01:43:24;;;;;;;6.22;3.47;;;;;;;14.23;75.79;98110.03;5138834;27;20397;-81
2022/07/18 01:45:50;;;;;;;5.95;3.50;;;;;;;14.10;77.08;98125.25;5156634;27;20026;-81
2022/07/18 01:48:16;;;;;;;9.38;4.60;;;;;;;13.98;78.29;98110.81;5156124;27;20453;-81
2022/07/18 01:50:41;;;;;;;11.55;6.55;;;;;;;13.98;80.01;98136.84;5138965;27;20030;-81
2022/07/18 01:53:07;;;;;;;10.30;6.68;;;;;;;13.83;81.93;98127.09;5155900;27;20030;-83
2022/07/18 01:55:33;;;;;;;15.55;7.47;;;;;;;13.67;83.82;98137.09;5135737;27;20031;-82
2022/07/18 01:57:58;;;;;;;19.77;8.07;;;;;;;13.50;86.06;98128.31;5132938;27;20469;-83
2022/07/18 02:00:24;;;;;;;19.08;8.82;;;;;;;13.45;87.58;98127.75;5156114;27;20093;-83
2022/07/18 02:02:49;;;;;;;17.63;8.75;;;;;;;13.25;89.13;98113.88;5135266;27;20054;-83
2022/07/18 02:05:15;;;;;;;19.95;11.57;;;;;;;13.29;89.44;98132.38;5137763;27;20117;-82
2022/07/18 02:07:41;;;;;;;18.27;9.93;;;;;;;13.22;90.49;98128.38;5174829;27;20063;-81
2022/07/18 02:10:12;;;;;;;15.88;9.63;;;;;;;13.34;90.07;98134.78;5155756;27;20031;-81
2022/07/18 02:12:38;;;;;;;14.55;8.73;;;;;;;13.35;90.08;98145.41;5135696;27;20019;-82
2022/07/18 02:15:05;;;;;;;12.27;8.10;;;;;;;13.35;89.47;98158.84;5132862;27;20027;-82
2022/07/18 02:17:30;;;;;;;12.60;6.80;;;;;;;13.34;89.59;98141.03;5137866;27;20140;-80
2022/07/18 02:19:56;;;;;;;13.55;6.97;;;;;;;13.28;90.29;98135.16;5155851;27;20512;-82
2022/07/18 02:22:22;;;;;;;13.90;7.30;;;;;;;13.31;90.22;98135.84;5137994;27;20116;-82
2022/07/18 02:24:48;;;;;;;11.68;6.13;;;;;;;13.26;89.16;98137.94;5155800;27;20026;-82
2022/07/18 02:27:14;;;;;;;11.80;6.75;;;;;;;13.21;89.75;98142.75;5138245;27;20026;-81
2022/07/18 02:29:39;;;;;;;10.93;7.28;;;;;;;13.13;90.29;98145.06;5137809;27;20026;-81
2022/07/18 02:32:05;;;;;;;13.43;6.40;;;;;;;13.12;90.70;98143.31;5131397;27;20464;-82
2022/07/18 02:34:31;;;;;;;13.80;6.72;;;;;;;13.10;90.61;98147.94;5134464;27;20027;-83
2022/07/18 02:36:57;;;;;;;13.90;6.78;;;;;;;13.05;91.08;98139.25;5151861;27;20018;-82
2022/07/18 02:39:22;;;;;;;12.10;6.28;;;;;;;13.16;90.75;98158.31;5151420;27;20023;-81
2022/07/18 02:41:48;;;;;;;12.55;6.72;;;;;;;13.13;91.27;98147.75;5151906;27;20033;-81
2022/07/18 02:44:14;;;;;;;13.25;7.80;;;;;;;13.12;91.67;98146.00;5134613;27;20032;-80
2022/07/18 02:46:40;;;;;;;16.30;7.90;;;;;;;13.20;91.19;98165.19;5134399;27;20129;-83
2022/07/18 02:49:05;;;;;;;18.38;7.20;;;;;;;13.19;91.46;98165.28;5152006;27;20057;-83
2022/07/18 02:51:32;;;;;;;13.05;6.57;;;;;;;13.07;92.58;98159.69;5134503;27;20473;-82
2022/07/18 02:53:57;;;;;;;10.45;6.65;;;;;;;13.03;93.25;98154.59;5153020;27;20027;-84
2022/07/18 02:56:23;;;;;;;13.65;5.90;;;;;;;13.06;92.60;98154.41;5151761;27;20027;-82
2022/07/18 02:58:48;;;;;;;8.50;4.95;;;;;;;13.03;91.38;98157.28;5151883;27;20030;-82
2022/07/18 03:01:14;;;;;;;11.50;5.07;;;;;;;13.03;92.46;98170.72;5134366;27;20486;-84
2022/07/18 03:03:40;;;;;;;12.73;4.63;;;;;;;13.05;91.97;98171.47;5151725;27;20082;-82
2022/07/18 03:06:05;;;;;;;7.00;3.80;;;;;;;12.94;92.16;98168.59;5131066;27;20027;-82
2022/07/18 03:08:31;;;;;;;6.97;4.10;;;;;;;12.94;92.47;98171.28;5132828;27;20525;-82
2022/07/18 03:10:56;;;;;;;6.72;3.80;;;;;;;12.92;90.91;98171.38;5151595;27;20393;-82
2022/07/18 03:13:22;;;;;;;5.80;3.30;;;;;;;12.96;89.04;98170.22;5134049;27;20408;-81
2022/07/18 03:15:48;;;;;;;7.40;3.25;;;;;;;12.94;88.09;98171.28;5131039;27;20076;-83
2022/07/18 03:18:13;;;;;;;6.20;3.38;;;;;;;12.98;88.54;98180.91;5148063;27;20499;-81
2022/07/18 03:20:39;;;;;;;6.72;4.10;;;;;;;13.03;88.88;98182.34;5151298;27;20031;-82
2022/07/18 03:23:06;;;;;;;19.27;6.53;;;;;;;13.13;91.89;98192.53;5130606;28;20023;-83
2022/07/18 03:25:31;;;;;;;9.80;5.30;;;;;;;12.99;94.11;98187.97;5133812;27;20019;-82
2022/07/18 03:27:57;;;;;;;13.48;6.18;;;;;;;13.02;95.25;98187.78;5134093;27;20027;-82
2022/07/18 03:30:22;;;;;;;12.57;6.55;;;;;;;13.04;95.83;98188.56;5151236;27;20027;-82
2022/07/18 03:32:48;;;;;;;14.25;5.93;;;;;;;13.07;95.15;98186.53;5151224;27;20115;-82
2022/07/18 03:35:14;;;;;;;12.88;5.82;;;;;;;13.15;95.08;98194.16;5133945;27;20050;-81
2022/07/18 03:37:40;;;;;;;13.95;6.15;;;;;;;13.09;95.09;98180.25;5152327;27;20087;-79
2022/07/18 03:40:06;;;;;;;15.32;6.32;;;;;;;13.15;95.09;98180.75;5151425;27;20413;-82
2022/07/18 03:42:31;;;;;;;15.85;6.15;;;;;;;13.23;93.75;98185.63;5155070;27;20500;-82
2022/07/18 03:44:57;;;;;;;14.20;5.90;;;;;;;13.20;93.22;98175.06;5155540;27;20015;-82
2022/07/18 03:47:23;;;;;;;12.20;4.68;;;;;;;13.32;92.31;98193.97;5155263;27;20023;-82
2022/07/18 03:49:48;;;;;;;7.75;4.35;;;;;;;13.36;90.28;98203.56;5155197;27;20027;-82
2022/07/18 03:52:14;;;;;;;13.40;5.43;;;;;;;13.30;91.11;98209.34;5134493;27;20031;-81
2022/07/18 03:54:39;;;;;;;12.45;4.80;;;;;;;13.38;90.66;98196.28;5137030;27;20065;-83
2022/07/18 03:57:05;;;;;;;21.77;6.65;;;;;;;13.39;90.81;98195.31;5134868;27;20023;-82
2022/07/18 03:59:30;;;;;;;12.43;5.05;;;;;;;13.45;90.09;98196.75;5152985;27;20023;-82
2022/07/18 04:01:56;;;;;;;13.93;4.85;;;;;;;13.50;89.58;98197.34;5154917;27;20079;-81
2022/07/18 04:04:21;;;;;;;10.57;5.75;;;;;;;13.47;89.64;98198.38;5138222;27;20163;-89
2022/07/18 04:06:47;;;;;;;21.70;7.47;;;;;;;13.62;89.94;98210.00;5137998;27;20074;-82
2022/07/18 04:09:13;;;;;;;22.38;5.88;;;;;;;13.65;89.10;98208.94;5136672;27;20023;-80
2022/07/18 04:11:38;;;;;;;22.25;6.18;;;;;;;13.66;88.71;98197.25;5154824;27;20031;-83
2022/07/18 04:14:04;;;;;;;14.27;5.63;;;;;;;13.77;87.89;98203.66;5156187;27;20102;-82
2022/07/18 04:16:29;;;;;;;19.00;5.70;;;;;;;13.73;88.45;98199.41;5137615;27;20405;-80
2022/07/18 04:18:55;;;;;;;16.48;5.20;;;;;;;13.72;87.09;98194.16;5133944;27;20051;-83
2022/07/18 04:21:21;;;;;;;19.02;5.57;;;;;;;13.82;86.70;98206.91;5137049;27;20873;-83
2022/07/18 04:23:46;;;;;;;23.98;6.50;;;;;;;13.84;85.82;98207.66;5136305;27;20031;-81
2022/07/18 04:26:12;;;;;;;15.10;5.38;;;;;;;13.87;85.14;98198.53;5135567;27;20066;-81
2022/07/18 04:28:37;;;;;;;14.60;6.25;;;;;;;13.91;85.41;98194.66;5137090;27;20087;-81
2022/07/18 04:31:03;;;;;;;12.70;5.55;;;;;;;14.04;85.37;98207.25;5154320;27;20039;-82
2022/07/18 04:33:28;;;;;;;18.60;5.25;;;;;;;14.22;84.02;98193.53;5133550;27;20446;-82
2022/07/18 04:35:54;;;;;;;12.93;4.90;;;;;;;14.31;84.76;98196.47;5150548;27;20454;-87
2022/07/18 04:38:19;;;;;;;11.52;4.45;;;;;;;14.31;82.44;98193.78;5140573;27;20022;-88
2022/07/18 04:40:45;;;;;;;13.95;6.32;;;;;;;14.53;82.30;98202.19;5140033;27;20023;-87
2022/07/18 04:43:11;;;;;;;18.63;5.68;;;;;;;14.87;80.26;98208.84;5157680;27;20019;-88
2022/07/18 04:45:37;;;;;;;17.50;4.97;;;;;;;15.38;76.50;98201.63;5139330;27;20037;-85
2022/07/18 04:48:06;;;;;;;11.85;5.40;;;;;;;15.41;74.70;98196.03;5158151;27;20030;-83
2022/07/18 04:50:32;;;;;;;16.25;5.65;;;;;;;15.52;74.14;98198.88;5139323;27;20131;-88
2022/07/18 04:52:58;;;;;;;18.85;5.18;;;;;;;15.43;73.48;98196.78;5139232;27;20026;-87
2022/07/18 04:55:25;;;;;;;9.15;4.95;;;;;;;15.36;73.41;98200.03;5156896;27;20045;-89
2022/07/18 04:57:51;;;;;;;11.52;4.68;;;;;;;15.38;74.03;98201.63;5136389;27;20413;-88
2022/07/18 05:00:23;;;;;;;12.77;4.47;;;;;;;15.49;73.41;98203.63;5136259;27;20019;-88
2022/07/18 05:02:51;;;;;;;7.80;4.80;;;;;;;15.69;72.64;98190.41;5134453;27;20031;-88
2022/07/18 05:05:17;;;;;;;20.15;4.78;;;;;;;16.56;70.34;98195.66;5139344;27;20271;-89
2022/07/18 05:07:45;;;;;;;6.93;3.58;;;;;;;18.57;62.35;98172.28;5140190;27;20026;-88
2022/07/18 05:10:12;;;;;;;10.63;3.63;;;;;;;20.75;55.84;98158.16;5139377;27;20485;-87
2022/07/18 05:12:40;;;;;;;7.68;3.33;;;;;;;21.73;50.82;98145.94;5136570;27;20027;-88
2022/07/18 05:15:07;;;;;;;9.27;3.60;;;;;;;22.06;49.56;98156.28;5119328;27;20065;-88
2022/07/18 05:17:33;;;;;;;5.20;2.90;;;;;;;22.30;48.08;98163.06;5157055;27;20023;-87
2022/07/18 05:19:58;;;;;;;6.15;2.38;;;;;;;22.11;47.69;98148.53;5156752;27;21167;-89
2022/07/18 05:22:24;;;;;;;4.63;3.10;;;;;;;21.36;49.49;98165.00;5136197;27;20027;-88
2022/07/18 05:24:50;;;;;;;7.07;2.95;;;;;;;21.03;49.73;98154.56;5138317;27;20041;-90
2022/07/18 05:27:15;;;;;;;9.80;2.90;;;;;;;22.14;47.61;98158.25;5135907;27;20092;-89
2022/07/18 05:29:41;;;;;;;6.68;3.47;;;;;;;23.92;44.24;98157.97;5128970;27;20031;-89
2022/07/18 05:32:07;;;;;;;8.05;3.10;;;;;;;25.10;41.78;98135.91;5137031;27;20126;-88
2022/07/18 05:34:33;;;;;;;7.85;3.00;;;;;;;26.66;38.87;98137.84;5122368;27;20044;-89
2022/07/18 05:36:59;;;;;;;7.55;3.53;;;;;;;28.25;36.54;98137.56;5139912;27;20027;-88
2022/07/18 05:39:24;;;;;;;15.40;4.07;;;;;;;29.36;34.01;98132.47;5157331;27;20072;-88
2022/07/18 05:41:50;;;;;;;13.80;5.68;;;;;;;29.57;33.91;98124.16;5140007;27;20058;-86
2022/07/18 05:44:15;;;;;;;9.13;6.05;;;;;;;30.69;32.43;98129.50;5158550;27;20029;-87
2022/07/18 05:46:41;;;;;;;31.92;6.57;;;;;;;31.53;31.07;98114.97;5136713;27;20031;-88
2022/07/18 05:49:06;;;;;;;13.75;6.82;;;;;;;31.77;30.55;98118.16;5131997;27;20144;-88
2022/07/18 05:51:32;;;;;;;22.85;6.20;;;;;;;31.84;30.41;98127.31;5139125;27;20023;-88
2022/07/18 05:53:57;;;;;;;14.57;5.80;;;;;;;31.41;31.40;98130.50;5140010;27;20078;-88
2022/07/18 05:56:23;;;;;;;15.20;7.90;;;;;;;30.40;32.94;98131.50;5156274;27;20122;-86
2022/07/18 05:58:49;;;;;;;11.90;7.50;;;;;;;30.98;31.86;98130.03;5134922;27;20031;-87
2022/07/18 06:01:19;;;;;;;18.00;5.93;;;;;;;30.82;32.54;98126.78;5135574;27;20084;-89
2022/07/18 06:03:46;;;;;;;11.75;5.60;;;;;;;28.70;34.57;98130.94;5134339;27;20370;-88
2022/07/18 06:06:13;;;;;;;13.00;5.75;;;;;;;28.75;34.69;98136.72;5135278;27;20026;-88
2022/07/18 06:08:38;;;;;;;10.45;5.50;;;;;;;29.85;33.49;98131.59;5151223;27;20018;-87
2022/07/18 06:11:06;;;;;;;19.85;6.32;;;;;;;30.84;32.42;98127.41;5138587;27;20481;-88
2022/07/18 06:13:33;;;;;;;19.23;5.53;;;;;;;31.06;31.51;98120.69;5138981;27;20058;-88
2022/07/18 06:15:59;;;;;;;18.92;5.32;;;;;;;29.96;32.74;98131.88;5155868;27;20026;-89
2022/07/18 06:18:25;;;;;;;13.23;5.57;;;;;;;30.89;32.05;98130.38;5138098;27;20041;-88
2022/07/18 06:20:50;;;;;;;7.47;4.97;;;;;;;28.64;34.15;98125.34;5138584;27;20022;-88
2022/07/18 06:23:16;;;;;;;15.30;5.47;;;;;;;28.59;34.84;98144.34;5156199;27;20022;-89
2022/07/18 06:25:41;;;;;;;11.40;5.15;;;;;;;29.45;34.05;98144.22;5138278;27;20138;-88
2022/07/18 06:28:07;;;;;;;12.80;4.28;;;;;;;29.31;32.88;98135.00;5134146;27;20031;-88
2022/07/18 06:30:32;;;;;;;10.98;4.45;;;;;;;30.67;30.63;98142.69;5119932;27;20035;-90
2022/07/18 06:33:04;;;;;;;10.63;3.75;;;;;;;29.91;30.93;98131.66;5115116;28;20138;-88
2022/07/18 06:35:30;;;;;;;;;;;;;;;31.34;29.90;98139.88;5108110;27;20028;-89
2022/07/18 06:37:55;;;;;;;9.05;3.40;;;;;;;32.34;28.16;98128.47;5135211;27;20282;-89
2022/07/18 06:40:24;;;;;;;5.95;3.47;;;;;;;31.98;28.36;98134.53;5118061;27;20027;-89
2022/07/18 06:42:51;;;;;;;4.63;3.05;;;;;;;32.59;27.62;98107.31;5134560;27;20027;-89
2022/07/18 06:45:16;;;;;;;7.05;3.60;;;;;;;33.15;26.42;98121.31;5134917;27;20027;-88
2022/07/18 06:47:42;;;;;;;5.30;3.40;;;;;;;31.27;28.63;98123.25;5114012;28;20028;-88
2022/07/18 06:50:09;;;;;;;12.18;4.07;;;;;;;32.25;27.55;98133.41;5114685;28;20077;-89
2022/07/18 06:52:34;;;;;;;4.85;3.08;;;;;;;33.22;26.03;98109.06;5119153;27;20064;-86
2022/07/18 06:55:00;;;;;;;4.10;2.63;;;;;;;34.08;25.08;98120.28;5135256;27;20386;-88
2022/07/18 06:57:26;;;;;;;5.47;3.22;;;;;;;34.09;25.08;98112.78;5134692;27;20027;-88
2022/07/18 06:59:53;;;;;;;4.70;3.10;;;;;;;35.12;24.10;98111.72;5118151;27;20037;-89
2022/07/18 07:02:19;;;;;;;13.77;3.33;;;;;;;35.04;23.62;98112.03;5118247;27;20391;-89
2022/07/18 07:04:45;;;;;;;7.38;2.08;;;;;;;32.13;25.52;98115.78;5118223;27;20083;-88
2022/07/18 07:07:10;;;;;;;6.03;2.75;;;;;;;32.38;26.37;98111.22;5118190;27;20042;-87
2022/07/18 07:09:36;;;;;;;4.55;2.60;;;;;;;31.41;27.57;98127.72;5118035;27;20031;-90
2022/07/18 07:12:01;;;;;;;7.15;2.50;;;;;;;33.62;25.36;98120.75;5135539;27;20042;-88
2022/07/18 07:14:27;;;;;;;5.03;2.50;;;;;;;33.75;25.22;98103.09;5118000;28;20031;-89
2022/07/18 07:16:52;;;;;;;7.15;2.70;;;;;;;34.35;24.91;98111.66;5117587;28;20175;-89
2022/07/18 07:19:18;;;;;;;5.47;2.58;;;;;;;34.38;25.17;98109.28;5117854;28;20459;-88
2022/07/18 07:21:43;;;;;;;7.35;2.70;;;;;;;35.40;23.67;98107.44;5117981;28;20030;-89
2022/07/18 07:24:09;;;;;;;5.60;2.75;;;;;;;35.41;23.61;98101.63;5117663;28;20027;-89
2022/07/18 07:26:35;;;;;;;6.15;2.72;;;;;;;35.42;23.63;98111.69;5118076;28;20504;-87
2022/07/18 07:29:00;;;;;;;3.33;2.53;;;;;;;35.74;23.32;98115.88;5116419;28;20031;-89
2022/07/18 07:31:26;;;;;;;4.65;2.78;;;;;;;35.92;23.49;98119.63;5124508;27;20050;-90
2022/07/18 07:33:51;;;;;;;8.00;2.97;;;;;;;36.00;23.20;98120.09;5134250;27;20546;-88
2022/07/18 07:36:17;;;;;;;3.08;2.65;;;;;;;35.42;23.84;98110.81;5135775;27;20153;-89
2022/07/18 07:38:42;;;;;;;8.65;3.35;;;;;;;35.98;22.75;98107.50;5137408;27;20488;-89
2022/07/18 07:41:08;;;;;;;10.23;3.25;;;;;;;35.46;23.54;98112.03;5134483;28;20016;-88
2022/07/18 07:43:36;;;;;;;11.05;3.15;;;;;;;36.53;22.73;98125.53;5138383;27;20413;-89
2022/07/18 07:46:02;;;;;;;3.95;2.78;;;;;;;36.84;22.29;98113.94;5137909;27;20117;-88
2022/07/18 07:48:27;;;;;;;4.50;2.67;;;;;;;36.58;22.52;98111.69;5136733;27;20023;-89
2022/07/18 07:50:53;;;;;;;5.22;2.50;;;;;;;36.85;22.13;98104.47;5155578;27;20109;-88
2022/07/18 07:53:19;;;;;;;6.18;2.70;;;;;;;35.59;23.30;98100.72;5156660;27;20486;-89
2022/07/18 07:55:44;;;;;;;7.00;3.13;;;;;;;35.83;23.21;98102.44;5138597;27;20037;-89
2022/07/18 07:58:10;;;;;;;6.10;2.85;;;;;;;37.04;22.11;98099.53;5155931;27;20002;-89
2022/07/18 08:00:36;;;;;;;7.38;2.80;;;;;;;36.33;22.54;98097.22;5137095;27;20018;-89
2022/07/18 08:03:04;;;;;;;8.18;2.67;;;;;;;37.67;21.51;98099.31;5137135;27;20091;-88
2022/07/18 08:05:33;;;;;;;9.98;2.60;;;;;;;36.36;22.49;98094.75;5138124;27;20058;-89
2022/07/18 08:07:59;;;;;;;11.10;2.67;;;;;;;37.78;21.50;98095.56;5132865;27;20026;-81
2022/07/18 08:10:25;;;;;;;8.95;3.38;;;;;;;38.36;21.44;98103.47;5131312;27;20049;-80
2022/07/18 08:12:51;;;;;;;6.38;2.80;;;;;;;38.21;21.17;98094.00;5148753;27;20463;-82
2022/07/18 08:15:17;;;;;;;8.32;2.88;;;;;;;37.05;21.72;98092.88;5132152;27;20026;-83
2022/07/18 08:17:43;;;;;;;8.40;2.60;;;;;;;37.25;22.81;98107.22;5128342;28;20031;-83
2022/07/18 08:20:11;;;;;;;9.38;2.72;;;;;;;37.34;22.80;98088.09;5140587;27;20015;-83
2022/07/18 08:22:51;;;;;;;8.75;2.80;;;;;;;35.76;24.16;98108.13;5148687;27;20023;-83
2022/07/18 08:25:18;;;;;;;7.82;2.70;;;;;;;34.49;25.14;98097.34;5131156;27;20030;-83
2022/07/18 08:27:44;;;;;;;80.22;5.43;;;;;;;35.22;24.80;98100.88;5151387;27;20034;-84
2022/07/18 08:30:09;;;;;;;13.23;2.70;;;;;;;36.01;24.00;98101.44;5152420;27;20027;-84
2022/07/18 08:32:35;;;;;;;6.60;2.70;;;;;;;37.60;23.16;98090.25;5133131;27;20120;-84
2022/07/18 08:35:01;;;;;;;6.80;2.67;;;;;;;37.78;22.44;98095.56;5134764;27;20030;-84
2022/07/18 08:37:26;;;;;;;11.82;2.60;;;;;;;36.58;22.97;98094.97;5151803;27;20470;-84
2022/07/18 08:39:52;;;;;;;5.25;2.70;;;;;;;36.56;23.02;98093.53;5131400;27;20215;-83
2022/07/18 08:42:18;;;;;;;4.20;2.67;;;;;;;37.58;22.14;98095.25;5152717;27;20023;-83
2022/07/18 08:44:44;;;;;;;7.88;2.30;;;;;;;37.62;22.00;98085.25;5152080;27;20102;-84
2022/07/18 08:47:10;;;;;;;12.30;3.15;;;;;;;38.10;22.26;98092.16;5151914;27;20708;-83
2022/07/18 08:49:36;;;;;;;9.32;2.85;;;;;;;36.55;23.87;98094.63;5151668;27;20490;-82
2022/07/18 08:52:02;;;;;;;49.97;5.95;;;;;;;37.07;23.34;98092.63;5151830;27;20041;-83
2022/07/18 08:54:28;;;;;;;6.70;2.63;;;;;;;37.26;23.68;98102.44;5151833;27;20023;-83
2022/07/18 08:56:53;;;;;;;5.15;2.47;;;;;;;36.51;24.30;98102.63;5153317;27;20113;-85
2022/07/18 08:59:19;;;;;;;8.88;2.40;;;;;;;36.97;23.94;98097.97;5151445;27;20049;-84
2022/07/18 09:01:44;;;;;;;5.00;2.40;;;;;;;37.26;24.17;98099.66;5151690;27;20508;-84
2022/07/18 09:04:17;;;;;;;9.95;3.83;;;;;;;36.86;23.82;98094.97;5134717;27;20061;-83
2022/07/18 09:06:50;;;;;;;5.80;2.90;;;;;;;36.26;24.66;98096.50;5151761;27;20027;-83
2022/07/18 09:09:17;;;;;;;6.88;2.58;;;;;;;36.70;24.87;98090.19;5131999;27;20058;-84
2022/07/18 09:11:54;;;;;;;7.22;2.60;;;;;;;35.80;24.89;98091.78;5151195;27;20083;-84
2022/07/18 09:14:33;;;;;;;4.60;2.65;;;;;;;34.78;26.17;98102.16;5151402;27;20541;-83
2022/07/18 09:17:08;;;;;;;11.68;2.95;;;;;;;34.14;27.51;98099.94;5134135;27;20026;-84
2022/07/18 09:19:34;;;;;;;3.95;2.60;;;;;;;36.01;25.05;98093.09;5151288;27;20042;-84
2022/07/18 09:22:13;;;;;;;4.22;2.47;;;;;;;36.32;25.00;98095.50;5134232;27;20110;-84
2022/07/18 09:25:05;;;;;;;4.28;2.50;;;;;;;37.08;24.60;98097.09;5132885;27;20408;-84
2022/07/18 09:27:33;;;;;;;4.22;2.72;;;;;;;37.00;24.28;98091.94;5152692;27;20512;-84
2022/07/18 09:30:24;;;;;;;8.65;2.70;;;;;;;37.47;24.36;98098.13;5151363;27;20569;-84
2022/07/18 09:32:53;;;;;;;9.32;2.58;;;;;;;37.32;24.46;98093.06;5150984;27;20050;-84
2022/07/18 09:35:26;;;;;;;4.65;2.65;;;;;;;36.87;24.90;98087.47;5130411;27;20031;-84
2022/07/18 09:38:16;;;;;;;6.25;3.00;;;;;;;35.71;25.72;98088.50;5149009;27;20027;-83
2022/07/18 09:40:52;;;;;;;5.03;3.00;;;;;;;35.59;26.47;98095.16;5132286;27;20402;-83
2022/07/18 09:43:22;;;;;;;4.15;2.63;;;;;;;34.35;27.42;98104.19;5125215;27;20029;-84
2022/07/18 09:45:50;;;;;;;4.38;2.47;;;;;;;35.48;26.53;98102.38;5151175;27;20019;-84
2022/07/18 09:48:34;;;;;;;4.85;2.45;;;;;;;36.55;25.67;98089.06;5130336;27;20113;-83
2022/07/18 09:51:04;;;;;;;6.43;3.03;;;;;;;36.49;25.36;98090.84;5140160;27;20617;-80
2022/07/18 09:53:35;;;;;;;5.88;3.20;;;;;;;36.77;25.04;98082.53;5133540;27;20026;-79
2022/07/18 09:56:06;;;;;;;6.50;4.22;;;;;;;37.16;24.87;98091.13;5133336;27;20090;-79
2022/07/18 09:58:37;;;;;;;6.75;2.40;;;;;;;34.90;26.57;98084.63;5133703;27;20030;-80
2022/07/18 10:01:04;;;;;;;4.95;2.45;;;;;;;33.61;28.01;98074.63;5133849;27;20390;-78
2022/07/18 10:03:30;;;;;;;7.18;2.85;;;;;;;34.94;27.65;98085.88;5150701;27;20745;-80
2022/07/18 10:05:57;;;;;;;5.75;2.50;;;;;;;35.92;26.00;98072.25;5132072;27;20067;-80
2022/07/18 10:08:28;;;;;;;3.58;2.50;;;;;;;37.72;24.48;98078.97;5150402;27;20029;-80
2022/07/18 10:10:55;;;;;;;3.83;2.90;;;;;;;36.89;25.42;98080.53;5132811;27;20075;-79
2022/07/18 10:13:22;;;;;;;6.78;2.70;;;;;;;36.02;26.27;98072.50;5150253;27;20031;-80
2022/07/18 10:15:50;;;;;;;3.15;2.50;;;;;;;35.68;26.80;98077.84;5150192;27;20031;-79
2022/07/18 10:18:18;;;;;;;8.52;2.60;;;;;;;37.01;25.26;98068.50;5150228;27;20033;-79
2022/07/18 10:20:55;;;;;;;8.93;2.95;;;;;;;38.20;24.35;98076.38;5130852;27;20027;-78
2022/07/18 10:23:22;;;;;;;5.55;2.35;;;;;;;38.37;24.08;98070.75;5145830;27;20117;-79
2022/07/18 10:26:25;;;;;;;4.85;2.58;;;;;;;36.61;24.86;98063.78;5151182;27;20046;-79
2022/07/18 10:28:59;;;;;;;9.88;3.83;;;;;;;36.19;25.97;98065.09;5053761;28;20130;-80
2022/07/18 10:31:27;;;;;;;8.13;2.70;;;;;;;34.63;27.51;98062.78;5147399;27;20049;-79
2022/07/18 10:33:54;;;;;;;9.00;2.78;;;;;;;35.87;26.11;98059.09;5132505;27;20030;-79
2022/07/18 10:36:23;;;;;;;9.07;2.85;;;;;;;37.06;25.22;98054.66;5135083;27;20521;-79
2022/07/18 10:39:08;;;;;;;5.55;2.42;;;;;;;36.58;25.43;98055.91;5171649;27;20054;-79
2022/07/18 10:42:01;;;;;;;6.00;2.90;;;;;;;37.78;24.41;98056.44;5132476;27;20034;-78
2022/07/18 10:44:29;;;;;;;6.93;2.67;;;;;;;38.05;24.03;98048.22;5166067;27;20071;-79
2022/07/18 10:49:48;;;;;;;4.80;2.92;;;;;;;37.61;24.58;98046.41;5171567;27;20030;-79
2022/07/18 10:52:28;;;;;;;3.90;2.60;;;;;;;38.25;23.57;98045.69;5153560;27;20026;-79
2022/07/18 10:55:06;;;;;;;10.48;2.35;;;;;;;36.58;25.45;98039.19;5150819;27;20026;-79
2022/07/18 10:57:40;;;;;;;4.10;2.72;;;;;;;36.95;24.94;98034.03;5147625;27;20105;-79
2022/07/18 11:00:08;;;;;;;3.03;2.50;;;;;;;37.46;25.10;98049.78;5135584;27;20022;-79
2022/07/18 11:02:37;;;;;;;4.07;2.40;;;;;;;38.67;23.36;98036.72;5152840;27;20026;-79
2022/07/18 11:05:03;;;;;;;5.22;2.85;;;;;;;37.13;24.59;98019.06;5135356;27;20043;-79
2022/07/18 11:07:29;;;;;;;7.55;2.80;;;;;;;38.16;24.01;98021.22;5135605;27;20045;-79
2022/07/18 11:09:55;;;;;;;5.00;2.47;;;;;;;37.65;25.10;98028.88;5132972;27;20057;-79
2022/07/18 11:12:29;;;;;;;7.90;2.40;;;;;;;38.79;23.63;98024.31;5152606;27;20054;-79
2022/07/18 11:15:12;;;;;;;3.80;2.38;;;;;;;37.24;24.92;98009.75;5133073;27;20495;-81
2022/07/18 11:18:00;;;;;;;5.20;2.17;;;;;;;37.25;25.03;98017.03;5151742;27;20026;-78
2022/07/18 11:20:38;;;;;;;5.20;2.60;;;;;;;37.40;24.22;98015.34;5132393;27;20497;-78
2022/07/18 11:23:25;;;;;;;48.13;4.00;;;;;;;38.56;23.78;98024.56;5152419;27;20022;-78
2022/07/18 11:25:56;;;;;;;4.90;2.63;;;;;;;37.49;24.20;98012.97;5170812;27;20178;-79
2022/07/18 11:28:22;;;;;;;9.20;2.58;;;;;;;37.69;24.61;98021.66;5152735;27;20033;-79
2022/07/18 11:31:02;;;;;;;9.15;2.70;;;;;;;36.79;25.23;98009.75;5134808;27;20118;-79
2022/07/18 11:33:29;;;;;;;7.80;3.00;;;;;;;35.61;25.98;98010.28;5150739;27;20453;-79
2022/07/18 11:36:22;;;;;;;18.58;3.38;;;;;;;36.11;26.30;98015.34;5152658;27;20036;-79